sensor_id;sensor_type;location;lat;lon;timestamp;temperature;humidity
27890;DHT22;15238;49.082;9.102;2023-04-25T00:01:11;9.10;99.90
27890;DHT22;15238;49.082;9.102;2023-04-25T00:03:14;9.10;99.90
27890;DHT22;15238;49.082;9.102;2023-04-25T00:05:14;9.20;99.90
27890;DHT22;15238;49.082;9.102;2023-04-25T00:07:16;9.20;99.90
27890;DHT22;15238;49.082;9.102;2023-04-25T00:09:17;9.10;99.90
27890;DHT22;15238;49.082;9.102;2023-04-25T00:11:17;9.10;99.90
27890;DHT22;15238;49.082;9.102;2023-04-25T00:13:18;9.10;99.90
27890;DHT22;15238;49.082;9.102;2023-04-25T00:15:19;9.10;99.90
27890;DHT22;15238;49.082;9.102;2023-04-25T00:17:20;9.10;99.90
27890;DHT22;15238;49.082;9.102;2023-04-25T00:19:20;9.20;99.90
27890;DHT22;15238;49.082;9.102;2023-04-25T00:21:21;9.20;99.90
27890;DHT22;15238;49.082;9.102;2023-04-25T00:23:24;9.20;99.90
27890;DHT22;15238;49.082;9.102;2023-04-25T00:25:25;9.20;99.90
27890;DHT22;15238;49.082;9.102;2023-04-25T00:27:26;9.20;99.90
27890;DHT22;15238;49.082;9.102;2023-04-25T00:29:27;9.20;99.90
27890;DHT22;15238;49.082;9.102;2023-04-25T00:31:27;9.20;99.90
27890;DHT22;15238;49.082;9.102;2023-04-25T00:33:29;9.20;99.90
27890;DHT22;15238;49.082;9.102;2023-04-25T00:35:30;9.20;99.90
27890;DHT22;15238;49.082;9.102;2023-04-25T00:37:31;9.20;99.90
27890;DHT22;15238;49.082;9.102;2023-04-25T00:39:31;9.10;99.90
27890;DHT22;15238;49.082;9.102;2023-04-25T00:41:32;9.10;99.90
27890;DHT22;15238;49.082;9.102;2023-04-25T00:43:33;9.10;99.90
27890;DHT22;15238;49.082;9.102;2023-04-25T00:45:38;9.00;99.90
27890;DHT22;15238;49.082;9.102;2023-04-25T00:47:40;9.00;99.90
27890;DHT22;15238;49.082;9.102;2023-04-25T00:49:40;9.00;99.90
27890;DHT22;15238;49.082;9.102;2023-04-25T00:51:41;9.00;99.90
27890;DHT22;15238;49.082;9.102;2023-04-25T00:53:42;9.00;99.90
27890;DHT22;15238;49.082;9.102;2023-04-25T00:55:43;9.00;99.90
27890;DHT22;15238;49.082;9.102;2023-04-25T00:57:43;8.90;99.90
27890;DHT22;15238;49.082;9.102;2023-04-25T00:59:45;8.90;99.90
27890;DHT22;15238;49.082;9.102;2023-04-25T01:01:46;8.90;99.90
27890;DHT22;15238;49.082;9.102;2023-04-25T01:03:47;8.90;99.90
27890;DHT22;15238;49.082;9.102;2023-04-25T01:05:50;8.90;99.90
27890;DHT22;15238;49.082;9.102;2023-04-25T01:07:51;8.90;99.90
27890;DHT22;15238;49.082;9.102;2023-04-25T01:09:52;9.00;99.90
27890;DHT22;15238;49.082;9.102;2023-04-25T01:11:53;9.00;99.90
27890;DHT22;15238;49.082;9.102;2023-04-25T01:13:53;9.00;99.90
27890;DHT22;15238;49.082;9.102;2023-04-25T01:15:54;9.00;99.90
27890;DHT22;15238;49.082;9.102;2023-04-25T01:17:55;9.10;99.90
27890;DHT22;15238;49.082;9.102;2023-04-25T01:19:57;9.10;99.90
27890;DHT22;15238;49.082;9.102;2023-04-25T01:21:57;9.00;99.90
27890;DHT22;15238;49.082;9.102;2023-04-25T01:23:58;9.00;99.90
27890;DHT22;15238;49.082;9.102;2023-04-25T01:25:59;9.00;99.90
27890;DHT22;15238;49.082;9.102;2023-04-25T01:28:00;8.90;99.90
27890;DHT22;15238;49.082;9.102;2023-04-25T01:30:01;8.90;99.90
27890;DHT22;15238;49.082;9.102;2023-04-25T01:32:02;8.90;99.90
27890;DHT22;15238;49.082;9.102;2023-04-25T01:34:03;8.90;99.90
27890;DHT22;15238;49.082;9.102;2023-04-25T01:36:04;8.90;99.90
27890;DHT22;15238;49.082;9.102;2023-04-25T01:38:05;8.90;99.90
27890;DHT22;15238;49.082;9.102;2023-04-25T01:40:07;9.00;99.90
27890;DHT22;15238;49.082;9.102;2023-04-25T01:42:07;8.90;99.90
27890;DHT22;15238;49.082;9.102;2023-04-25T01:44:08;8.90;99.90
27890;DHT22;15238;49.082;9.102;2023-04-25T01:46:09;8.90;99.90
27890;DHT22;15238;49.082;9.102;2023-04-25T01:48:13;8.90;99.90
27890;DHT22;15238;49.082;9.102;2023-04-25T01:50:15;8.80;99.90
27890;DHT22;15238;49.082;9.102;2023-04-25T01:52:16;8.70;99.90
27890;DHT22;15238;49.082;9.102;2023-04-25T01:54:17;8.70;99.90
27890;DHT22;15238;49.082;9.102;2023-04-25T01:56:18;8.70;99.90
27890;DHT22;15238;49.082;9.102;2023-04-25T01:58:19;8.70;99.90
27890;DHT22;15238;49.082;9.102;2023-04-25T02:00:20;8.70;99.90
27890;DHT22;15238;49.082;9.102;2023-04-25T02:02:21;8.70;99.90
27890;DHT22;15238;49.082;9.102;2023-04-25T02:04:21;8.70;99.90
27890;DHT22;15238;49.082;9.102;2023-04-25T02:06:22;8.60;99.90
27890;DHT22;15238;49.082;9.102;2023-04-25T02:08:22;8.60;99.90
27890;DHT22;15238;49.082;9.102;2023-04-25T02:10:23;8.60;99.90
27890;DHT22;15238;49.082;9.102;2023-04-25T02:12:23;8.70;99.90
27890;DHT22;15238;49.082;9.102;2023-04-25T02:14:26;8.60;99.90
27890;DHT22;15238;49.082;9.102;2023-04-25T02:16:27;8.60;99.90
27890;DHT22;15238;49.082;9.102;2023-04-25T02:18:27;8.50;99.90
27890;DHT22;15238;49.082;9.102;2023-04-25T02:20:29;8.50;99.90
27890;DHT22;15238;49.082;9.102;2023-04-25T02:22:30;8.60;99.90
27890;DHT22;15238;49.082;9.102;2023-04-25T02:24:31;8.60;99.90
27890;DHT22;15238;49.082;9.102;2023-04-25T02:26:33;8.60;99.90
27890;DHT22;15238;49.082;9.102;2023-04-25T02:28:34;8.60;99.90
27890;DHT22;15238;49.082;9.102;2023-04-25T02:30:35;8.60;99.90
27890;DHT22;15238;49.082;9.102;2023-04-25T02:32:35;8.60;99.90
27890;DHT22;15238;49.082;9.102;2023-04-25T02:34:36;8.70;99.90
27890;DHT22;15238;49.082;9.102;2023-04-25T02:36:37;8.80;99.90
27890;DHT22;15238;49.082;9.102;2023-04-25T02:38:37;8.70;99.90
27890;DHT22;15238;49.082;9.102;2023-04-25T02:40:38;8.80;99.90
27890;DHT22;15238;49.082;9.102;2023-04-25T02:42:39;8.70;99.90
27890;DHT22;15238;49.082;9.102;2023-04-25T02:44:39;8.80;99.90
27890;DHT22;15238;49.082;9.102;2023-04-25T02:46:40;8.80;99.90
27890;DHT22;15238;49.082;9.102;2023-04-25T02:48:40;8.70;99.90
27890;DHT22;15238;49.082;9.102;2023-04-25T02:50:41;8.70;99.90
27890;DHT22;15238;49.082;9.102;2023-04-25T02:52:41;8.80;99.90
27890;DHT22;15238;49.082;9.102;2023-04-25T02:54:42;8.80;99.90
27890;DHT22;15238;49.082;9.102;2023-04-25T02:56:42;8.80;99.90
27890;DHT22;15238;49.082;9.102;2023-04-25T02:58:43;8.80;99.90
27890;DHT22;15238;49.082;9.102;2023-04-25T03:00:44;8.80;99.90
27890;DHT22;15238;49.082;9.102;2023-04-25T03:02:44;8.80;99.90
27890;DHT22;15238;49.082;9.102;2023-04-25T03:04:45;8.80;99.90
27890;DHT22;15238;49.082;9.102;2023-04-25T03:06:46;8.70;99.90
27890;DHT22;15238;49.082;9.102;2023-04-25T03:08:47;8.70;99.90
27890;DHT22;15238;49.082;9.102;2023-04-25T03:10:47;8.70;99.90
27890;DHT22;15238;49.082;9.102;2023-04-25T03:12:48;8.70;99.90
27890;DHT22;15238;49.082;9.102;2023-04-25T03:14:49;8.70;99.90
27890;DHT22;15238;49.082;9.102;2023-04-25T03:16:49;8.70;99.90
27890;DHT22;15238;49.082;9.102;2023-04-25T03:18:50;8.70;99.90
27890;DHT22;15238;49.082;9.102;2023-04-25T03:20:51;8.70;99.90
27890;DHT22;15238;49.082;9.102;2023-04-25T03:22:51;8.60;99.90
27890;DHT22;15238;49.082;9.102;2023-04-25T03:24:52;8.60;99.90
27890;DHT22;15238;49.082;9.102;2023-04-25T03:26:52;8.60;99.90
27890;DHT22;15238;49.082;9.102;2023-04-25T03:28:53;8.60;99.90
27890;DHT22;15238;49.082;9.102;2023-04-25T03:30:53;8.60;99.90
27890;DHT22;15238;49.082;9.102;2023-04-25T03:32:54;8.60;99.90
27890;DHT22;15238;49.082;9.102;2023-04-25T03:34:55;8.50;99.90
27890;DHT22;15238;49.082;9.102;2023-04-25T03:36:56;8.40;99.90
27890;DHT22;15238;49.082;9.102;2023-04-25T03:38:56;8.40;99.90
27890;DHT22;15238;49.082;9.102;2023-04-25T03:40:57;8.40;99.90
27890;DHT22;15238;49.082;9.102;2023-04-25T03:42:57;8.40;99.90
27890;DHT22;15238;49.082;9.102;2023-04-25T03:44:58;8.30;99.90
27890;DHT22;15238;49.082;9.102;2023-04-25T03:46:58;8.30;99.90
27890;DHT22;15238;49.082;9.102;2023-04-25T03:48:59;8.30;99.90
27890;DHT22;15238;49.082;9.102;2023-04-25T03:50:59;8.30;99.90
27890;DHT22;15238;49.082;9.102;2023-04-25T03:53:00;8.30;99.90
27890;DHT22;15238;49.082;9.102;2023-04-25T03:55:00;8.30;99.90
27890;DHT22;15238;49.082;9.102;2023-04-25T03:57:01;8.30;99.90
27890;DHT22;15238;49.082;9.102;2023-04-25T03:59:01;8.30;99.90
27890;DHT22;15238;49.082;9.102;2023-04-25T04:01:02;8.20;99.90
27890;DHT22;15238;49.082;9.102;2023-04-25T04:03:07;8.20;99.90
27890;DHT22;15238;49.082;9.102;2023-04-25T04:05:08;8.20;99.90
27890;DHT22;15238;49.082;9.102;2023-04-25T04:07:09;8.20;99.90
27890;DHT22;15238;49.082;9.102;2023-04-25T04:09:10;8.20;99.90
27890;DHT22;15238;49.082;9.102;2023-04-25T04:11:12;8.20;99.90
27890;DHT22;15238;49.082;9.102;2023-04-25T04:13:13;8.20;99.90
27890;DHT22;15238;49.082;9.102;2023-04-25T04:15:13;8.20;99.90
27890;DHT22;15238;49.082;9.102;2023-04-25T04:17:14;8.20;99.90
27890;DHT22;15238;49.082;9.102;2023-04-25T04:19:15;8.20;99.90
27890;DHT22;15238;49.082;9.102;2023-04-25T04:21:15;8.10;99.90
27890;DHT22;15238;49.082;9.102;2023-04-25T04:23:16;8.10;99.90
27890;DHT22;15238;49.082;9.102;2023-04-25T04:25:17;8.10;99.90
27890;DHT22;15238;49.082;9.102;2023-04-25T04:27:18;8.10;99.90
27890;DHT22;15238;49.082;9.102;2023-04-25T04:29:19;8.10;99.90
27890;DHT22;15238;49.082;9.102;2023-04-25T04:31:23;8.10;99.90
27890;DHT22;15238;49.082;9.102;2023-04-25T04:33:24;8.20;99.90
27890;DHT22;15238;49.082;9.102;2023-04-25T04:35:24;8.20;99.90
27890;DHT22;15238;49.082;9.102;2023-04-25T04:37:25;8.20;99.90
27890;DHT22;15238;49.082;9.102;2023-04-25T04:39:26;8.20;99.90
27890;DHT22;15238;49.082;9.102;2023-04-25T04:41:26;8.20;99.90
27890;DHT22;15238;49.082;9.102;2023-04-25T04:43:27;8.30;99.90
27890;DHT22;15238;49.082;9.102;2023-04-25T04:45:28;8.20;99.90
27890;DHT22;15238;49.082;9.102;2023-04-25T04:47:29;8.20;99.90
27890;DHT22;15238;49.082;9.102;2023-04-25T04:49:32;8.20;99.90
27890;DHT22;15238;49.082;9.102;2023-04-25T04:51:33;8.20;99.90
27890;DHT22;15238;49.082;9.102;2023-04-25T04:53:34;8.30;99.90
27890;DHT22;15238;49.082;9.102;2023-04-25T04:55:34;8.30;99.90
27890;DHT22;15238;49.082;9.102;2023-04-25T04:57:35;8.30;99.90
27890;DHT22;15238;49.082;9.102;2023-04-25T04:59:36;8.20;99.90
27890;DHT22;15238;49.082;9.102;2023-04-25T05:01:36;8.10;99.90
27890;DHT22;15238;49.082;9.102;2023-04-25T05:03:37;8.10;99.90
27890;DHT22;15238;49.082;9.102;2023-04-25T05:05:38;8.10;99.90
27890;DHT22;15238;49.082;9.102;2023-04-25T05:07:40;8.00;99.90
27890;DHT22;15238;49.082;9.102;2023-04-25T05:09:40;8.00;99.90
27890;DHT22;15238;49.082;9.102;2023-04-25T05:11:41;7.90;99.90
27890;DHT22;15238;49.082;9.102;2023-04-25T05:13:41;7.90;99.90
27890;DHT22;15238;49.082;9.102;2023-04-25T05:15:42;8.00;99.90
27890;DHT22;15238;49.082;9.102;2023-04-25T05:17:42;8.10;99.90
27890;DHT22;15238;49.082;9.102;2023-04-25T05:19:43;8.00;99.90
27890;DHT22;15238;49.082;9.102;2023-04-25T05:21:44;8.00;99.90
27890;DHT22;15238;49.082;9.102;2023-04-25T05:23:44;8.00;99.90
27890;DHT22;15238;49.082;9.102;2023-04-25T05:25:45;8.10;99.90
27890;DHT22;15238;49.082;9.102;2023-04-25T05:27:45;8.10;99.90
27890;DHT22;15238;49.082;9.102;2023-04-25T05:29:46;8.10;99.90
27890;DHT22;15238;49.082;9.102;2023-04-25T05:31:46;8.10;99.90
27890;DHT22;15238;49.082;9.102;2023-04-25T05:33:48;8.10;99.90
27890;DHT22;15238;49.082;9.102;2023-04-25T05:35:49;8.10;99.90
27890;DHT22;15238;49.082;9.102;2023-04-25T05:37:49;8.20;99.90
27890;DHT22;15238;49.082;9.102;2023-04-25T05:39:50;8.20;99.90
27890;DHT22;15238;49.082;9.102;2023-04-25T05:41:50;8.30;99.90
27890;DHT22;15238;49.082;9.102;2023-04-25T05:43:51;8.40;99.90
27890;DHT22;15238;49.082;9.102;2023-04-25T05:45:51;8.40;99.90
27890;DHT22;15238;49.082;9.102;2023-04-25T05:47:52;8.50;99.90
27890;DHT22;15238;49.082;9.102;2023-04-25T05:49:52;8.50;99.90
27890;DHT22;15238;49.082;9.102;2023-04-25T05:51:53;8.60;99.90
27890;DHT22;15238;49.082;9.102;2023-04-25T05:53:53;8.60;99.90
27890;DHT22;15238;49.082;9.102;2023-04-25T05:55:54;8.60;99.90
27890;DHT22;15238;49.082;9.102;2023-04-25T05:57:54;8.70;99.90
27890;DHT22;15238;49.082;9.102;2023-04-25T05:59:55;8.70;99.90
27890;DHT22;15238;49.082;9.102;2023-04-25T06:01:55;8.70;99.90
27890;DHT22;15238;49.082;9.102;2023-04-25T06:03:56;8.70;99.90
27890;DHT22;15238;49.082;9.102;2023-04-25T06:05:56;8.80;99.90
27890;DHT22;15238;49.082;9.102;2023-04-25T06:07:57;8.90;99.90
27890;DHT22;15238;49.082;9.102;2023-04-25T06:09:57;9.00;99.90
27890;DHT22;15238;49.082;9.102;2023-04-25T06:11:58;9.10;99.90
27890;DHT22;15238;49.082;9.102;2023-04-25T06:13:58;9.10;99.90
27890;DHT22;15238;49.082;9.102;2023-04-25T06:15:59;9.30;99.90
27890;DHT22;15238;49.082;9.102;2023-04-25T06:18:00;9.40;99.90
27890;DHT22;15238;49.082;9.102;2023-04-25T06:20:00;9.60;99.90
27890;DHT22;15238;49.082;9.102;2023-04-25T06:22:02;9.70;99.90
27890;DHT22;15238;49.082;9.102;2023-04-25T06:24:03;9.80;99.90
27890;DHT22;15238;49.082;9.102;2023-04-25T06:26:03;10.00;99.90
27890;DHT22;15238;49.082;9.102;2023-04-25T06:28:04;10.30;99.90
27890;DHT22;15238;49.082;9.102;2023-04-25T06:30:05;10.40;99.90
27890;DHT22;15238;49.082;9.102;2023-04-25T06:32:06;10.60;99.90
27890;DHT22;15238;49.082;9.102;2023-04-25T06:34:07;10.70;99.90
27890;DHT22;15238;49.082;9.102;2023-04-25T06:36:07;10.60;99.90
27890;DHT22;15238;49.082;9.102;2023-04-25T06:38:08;10.60;99.90
27890;DHT22;15238;49.082;9.102;2023-04-25T06:40:09;10.70;99.90
27890;DHT22;15238;49.082;9.102;2023-04-25T06:42:09;10.70;99.90
27890;DHT22;15238;49.082;9.102;2023-04-25T06:44:10;10.60;99.90
27890;DHT22;15238;49.082;9.102;2023-04-25T06:46:11;10.70;99.90
27890;DHT22;15238;49.082;9.102;2023-04-25T06:48:11;10.70;99.90
27890;DHT22;15238;49.082;9.102;2023-04-25T06:50:12;10.60;99.90
27890;DHT22;15238;49.082;9.102;2023-04-25T06:52:12;10.60;99.90
27890;DHT22;15238;49.082;9.102;2023-04-25T06:54:13;10.50;99.90
27890;DHT22;15238;49.082;9.102;2023-04-25T06:56:13;10.60;99.90
27890;DHT22;15238;49.082;9.102;2023-04-25T06:58:14;10.60;99.90
27890;DHT22;15238;49.082;9.102;2023-04-25T07:00:15;10.50;99.90
27890;DHT22;15238;49.082;9.102;2023-04-25T07:02:15;10.60;99.90
27890;DHT22;15238;49.082;9.102;2023-04-25T07:04:16;10.40;99.90
27890;DHT22;15238;49.082;9.102;2023-04-25T07:06:16;10.30;99.90
27890;DHT22;15238;49.082;9.102;2023-04-25T07:08:17;10.20;99.90
27890;DHT22;15238;49.082;9.102;2023-04-25T07:10:17;10.30;99.90
27890;DHT22;15238;49.082;9.102;2023-04-25T07:12:18;10.20;99.90
27890;DHT22;15238;49.082;9.102;2023-04-25T07:14:19;10.10;99.90
27890;DHT22;15238;49.082;9.102;2023-04-25T07:16:19;9.90;99.90
27890;DHT22;15238;49.082;9.102;2023-04-25T07:18:20;9.90;99.90
27890;DHT22;15238;49.082;9.102;2023-04-25T07:20:20;9.90;99.90
27890;DHT22;15238;49.082;9.102;2023-04-25T07:22:21;9.70;99.90
27890;DHT22;15238;49.082;9.102;2023-04-25T07:24:21;9.70;99.90
27890;DHT22;15238;49.082;9.102;2023-04-25T07:26:22;9.80;99.90
27890;DHT22;15238;49.082;9.102;2023-04-25T07:28:22;9.80;99.90
27890;DHT22;15238;49.082;9.102;2023-04-25T07:30:23;9.80;99.90
27890;DHT22;15238;49.082;9.102;2023-04-25T07:32:25;9.80;99.90
27890;DHT22;15238;49.082;9.102;2023-04-25T07:34:26;9.70;99.90
27890;DHT22;15238;49.082;9.102;2023-04-25T07:36:27;9.60;99.90
27890;DHT22;15238;49.082;9.102;2023-04-25T07:38:27;9.70;99.90
27890;DHT22;15238;49.082;9.102;2023-04-25T07:40:28;9.80;99.90
27890;DHT22;15238;49.082;9.102;2023-04-25T07:42:28;9.70;99.90
27890;DHT22;15238;49.082;9.102;2023-04-25T07:44:29;9.80;99.90
27890;DHT22;15238;49.082;9.102;2023-04-25T07:46:30;9.80;99.90
27890;DHT22;15238;49.082;9.102;2023-04-25T07:48:31;9.70;99.90
27890;DHT22;15238;49.082;9.102;2023-04-25T07:50:31;9.70;99.90
27890;DHT22;15238;49.082;9.102;2023-04-25T07:52:32;9.80;99.90
27890;DHT22;15238;49.082;9.102;2023-04-25T07:54:32;9.80;99.90
27890;DHT22;15238;49.082;9.102;2023-04-25T07:56:33;9.80;99.90
27890;DHT22;15238;49.082;9.102;2023-04-25T07:58:33;9.90;99.90
27890;DHT22;15238;49.082;9.102;2023-04-25T08:00:35;9.90;99.90
27890;DHT22;15238;49.082;9.102;2023-04-25T08:02:35;9.90;99.90
27890;DHT22;15238;49.082;9.102;2023-04-25T08:04:36;10.00;99.90
27890;DHT22;15238;49.082;9.102;2023-04-25T08:06:37;10.10;99.90
27890;DHT22;15238;49.082;9.102;2023-04-25T08:08:37;10.20;99.90
27890;DHT22;15238;49.082;9.102;2023-04-25T08:10:38;10.20;99.90
27890;DHT22;15238;49.082;9.102;2023-04-25T08:12:38;10.40;99.90
27890;DHT22;15238;49.082;9.102;2023-04-25T08:14:39;10.50;99.90
27890;DHT22;15238;49.082;9.102;2023-04-25T08:16:40;10.40;99.90
27890;DHT22;15238;49.082;9.102;2023-04-25T08:18:40;10.30;99.90
27890;DHT22;15238;49.082;9.102;2023-04-25T08:20:41;10.30;99.90
27890;DHT22;15238;49.082;9.102;2023-04-25T08:22:42;10.40;99.90
27890;DHT22;15238;49.082;9.102;2023-04-25T08:24:43;10.40;99.90
27890;DHT22;15238;49.082;9.102;2023-04-25T08:26:43;10.40;99.90
27890;DHT22;15238;49.082;9.102;2023-04-25T08:28:44;10.40;99.90
27890;DHT22;15238;49.082;9.102;2023-04-25T08:30:44;10.20;99.90
27890;DHT22;15238;49.082;9.102;2023-04-25T08:32:45;10.20;99.90
27890;DHT22;15238;49.082;9.102;2023-04-25T08:34:46;10.10;99.90
27890;DHT22;15238;49.082;9.102;2023-04-25T08:36:47;10.20;99.90
27890;DHT22;15238;49.082;9.102;2023-04-25T08:38:47;10.10;99.90
27890;DHT22;15238;49.082;9.102;2023-04-25T08:40:50;10.20;99.90
27890;DHT22;15238;49.082;9.102;2023-04-25T08:42:54;10.20;99.90
27890;DHT22;15238;49.082;9.102;2023-04-25T08:44:56;10.30;99.90
27890;DHT22;15238;49.082;9.102;2023-04-25T08:46:57;10.40;99.90
27890;DHT22;15238;49.082;9.102;2023-04-25T08:49:01;10.40;99.90
27890;DHT22;15238;49.082;9.102;2023-04-25T08:51:02;10.50;99.90
27890;DHT22;15238;49.082;9.102;2023-04-25T08:53:08;10.50;99.90
27890;DHT22;15238;49.082;9.102;2023-04-25T08:55:10;10.60;99.90
27890;DHT22;15238;49.082;9.102;2023-04-25T08:57:12;10.60;99.90
27890;DHT22;15238;49.082;9.102;2023-04-25T08:59:14;10.60;99.90
27890;DHT22;15238;49.082;9.102;2023-04-25T09:01:14;10.50;99.90
27890;DHT22;15238;49.082;9.102;2023-04-25T09:03:16;10.40;99.90
27890;DHT22;15238;49.082;9.102;2023-04-25T09:05:16;10.40;99.90
27890;DHT22;15238;49.082;9.102;2023-04-25T09:07:17;10.40;99.90
27890;DHT22;15238;49.082;9.102;2023-04-25T09:09:21;10.40;99.90
27890;DHT22;15238;49.082;9.102;2023-04-25T09:11:22;10.30;99.90
27890;DHT22;15238;49.082;9.102;2023-04-25T09:13:27;10.20;99.90
27890;DHT22;15238;49.082;9.102;2023-04-25T09:15:28;10.30;99.90
27890;DHT22;15238;49.082;9.102;2023-04-25T09:17:28;10.30;99.90
27890;DHT22;15238;49.082;9.102;2023-04-25T09:19:31;10.30;99.90
27890;DHT22;15238;49.082;9.102;2023-04-25T09:21:34;10.30;99.90
27890;DHT22;15238;49.082;9.102;2023-04-25T09:23:43;10.20;99.90
27890;DHT22;15238;49.082;9.102;2023-04-25T09:25:50;10.20;99.90
27890;DHT22;15238;49.082;9.102;2023-04-25T09:27:53;10.20;99.90
27890;DHT22;15238;49.082;9.102;2023-04-25T09:29:58;10.20;99.90
27890;DHT22;15238;49.082;9.102;2023-04-25T09:32:15;10.00;99.90
27890;DHT22;15238;49.082;9.102;2023-04-25T09:34:16;10.00;99.90
27890;DHT22;15238;49.082;9.102;2023-04-25T09:36:17;9.80;99.90
27890;DHT22;15238;49.082;9.102;2023-04-25T09:38:18;9.60;99.90
27890;DHT22;15238;49.082;9.102;2023-04-25T09:40:19;9.40;99.90
27890;DHT22;15238;49.082;9.102;2023-04-25T09:42:24;9.30;99.90
27890;DHT22;15238;49.082;9.102;2023-04-25T09:44:25;9.10;99.90
27890;DHT22;15238;49.082;9.102;2023-04-25T09:46:33;9.00;99.90
27890;DHT22;15238;49.082;9.102;2023-04-25T09:48:35;8.90;99.90
27890;DHT22;15238;49.082;9.102;2023-04-25T09:50:36;8.80;99.90
27890;DHT22;15238;49.082;9.102;2023-04-25T09:52:37;8.70;99.90
27890;DHT22;15238;49.082;9.102;2023-04-25T09:54:37;8.50;99.90
27890;DHT22;15238;49.082;9.102;2023-04-25T09:56:39;8.50;99.90
27890;DHT22;15238;49.082;9.102;2023-04-25T09:58:40;8.40;99.90
27890;DHT22;15238;49.082;9.102;2023-04-25T10:00:41;8.40;99.90
27890;DHT22;15238;49.082;9.102;2023-04-25T10:02:42;8.50;99.90
27890;DHT22;15238;49.082;9.102;2023-04-25T10:04:51;8.60;99.90
27890;DHT22;15238;49.082;9.102;2023-04-25T10:06:54;8.70;99.90
27890;DHT22;15238;49.082;9.102;2023-04-25T10:08:56;8.90;99.90
27890;DHT22;15238;49.082;9.102;2023-04-25T10:11:03;9.00;99.90
27890;DHT22;15238;49.082;9.102;2023-04-25T10:13:05;9.00;99.90
27890;DHT22;15238;49.082;9.102;2023-04-25T10:15:06;9.00;99.90
27890;DHT22;15238;49.082;9.102;2023-04-25T10:17:10;9.00;99.90
27890;DHT22;15238;49.082;9.102;2023-04-25T10:19:11;9.10;99.90
27890;DHT22;15238;49.082;9.102;2023-04-25T10:21:15;9.20;99.90
27890;DHT22;15238;49.082;9.102;2023-04-25T10:23:16;9.20;99.90
27890;DHT22;15238;49.082;9.102;2023-04-25T10:25:17;9.40;99.90
27890;DHT22;15238;49.082;9.102;2023-04-25T10:27:18;9.30;99.90
27890;DHT22;15238;49.082;9.102;2023-04-25T10:29:24;9.20;99.90
27890;DHT22;15238;49.082;9.102;2023-04-25T10:31:25;9.20;99.90
27890;DHT22;15238;49.082;9.102;2023-04-25T10:33:35;9.20;99.90
27890;DHT22;15238;49.082;9.102;2023-04-25T10:35:36;9.10;99.90
27890;DHT22;15238;49.082;9.102;2023-04-25T10:37:38;9.20;99.90
27890;DHT22;15238;49.082;9.102;2023-04-25T10:39:42;9.20;99.90
27890;DHT22;15238;49.082;9.102;2023-04-25T10:42:12;9.20;99.90
27890;DHT22;15238;49.082;9.102;2023-04-25T10:44:13;9.30;99.90
27890;DHT22;15238;49.082;9.102;2023-04-25T10:46:24;9.40;99.90
27890;DHT22;15238;49.082;9.102;2023-04-25T10:48:26;9.40;99.90
27890;DHT22;15238;49.082;9.102;2023-04-25T10:50:37;9.60;99.90
27890;DHT22;15238;49.082;9.102;2023-04-25T10:52:41;9.70;99.90
27890;DHT22;15238;49.082;9.102;2023-04-25T10:54:46;9.70;99.90
27890;DHT22;15238;49.082;9.102;2023-04-25T10:56:48;9.90;99.90
27890;DHT22;15238;49.082;9.102;2023-04-25T10:58:49;10.00;99.90
27890;DHT22;15238;49.082;9.102;2023-04-25T11:00:50;10.00;99.90
27890;DHT22;15238;49.082;9.102;2023-04-25T11:02:58;10.10;99.90
27890;DHT22;15238;49.082;9.102;2023-04-25T11:04:59;10.20;99.90
27890;DHT22;15238;49.082;9.102;2023-04-25T11:09:11;10.20;99.90
27890;DHT22;15238;49.082;9.102;2023-04-25T11:11:14;10.30;99.90
27890;DHT22;15238;49.082;9.102;2023-04-25T11:13:15;10.40;99.90
27890;DHT22;15238;49.082;9.102;2023-04-25T11:15:15;10.50;99.90
27890;DHT22;15238;49.082;9.102;2023-04-25T11:17:16;10.30;99.90
27890;DHT22;15238;49.082;9.102;2023-04-25T11:19:16;10.40;99.90
27890;DHT22;15238;49.082;9.102;2023-04-25T11:21:20;10.40;99.90
27890;DHT22;15238;49.082;9.102;2023-04-25T11:23:20;10.50;99.90
27890;DHT22;15238;49.082;9.102;2023-04-25T11:25:23;10.40;99.90
27890;DHT22;15238;49.082;9.102;2023-04-25T11:27:24;10.50;99.90
27890;DHT22;15238;49.082;9.102;2023-04-25T11:29:29;10.40;99.90
27890;DHT22;15238;49.082;9.102;2023-04-25T11:31:30;10.40;99.90
27890;DHT22;15238;49.082;9.102;2023-04-25T11:33:31;10.30;99.90
27890;DHT22;15238;49.082;9.102;2023-04-25T11:35:31;10.10;99.90
27890;DHT22;15238;49.082;9.102;2023-04-25T11:37:33;9.70;99.90
27890;DHT22;15238;49.082;9.102;2023-04-25T11:39:34;9.60;99.90
27890;DHT22;15238;49.082;9.102;2023-04-25T11:41:37;9.60;99.90
27890;DHT22;15238;49.082;9.102;2023-04-25T11:43:38;9.70;99.90
27890;DHT22;15238;49.082;9.102;2023-04-25T11:45:39;9.70;99.90
27890;DHT22;15238;49.082;9.102;2023-04-25T11:47:39;9.80;99.90
27890;DHT22;15238;49.082;9.102;2023-04-25T11:49:40;9.80;99.90
27890;DHT22;15238;49.082;9.102;2023-04-25T11:51:45;10.00;99.90
27890;DHT22;15238;49.082;9.102;2023-04-25T11:53:46;10.20;99.90
27890;DHT22;15238;49.082;9.102;2023-04-25T11:55:46;10.30;99.90
27890;DHT22;15238;49.082;9.102;2023-04-25T11:57:48;10.40;99.90
27890;DHT22;15238;49.082;9.102;2023-04-25T11:59:50;10.60;99.90
27890;DHT22;15238;49.082;9.102;2023-04-25T12:01:51;10.60;99.90
27890;DHT22;15238;49.082;9.102;2023-04-25T12:03:51;10.60;99.90
27890;DHT22;15238;49.082;9.102;2023-04-25T12:05:52;10.70;99.90
27890;DHT22;15238;49.082;9.102;2023-04-25T12:07:52;10.60;99.90
27890;DHT22;15238;49.082;9.102;2023-04-25T12:09:53;10.50;99.90
27890;DHT22;15238;49.082;9.102;2023-04-25T12:11:58;10.60;99.90
27890;DHT22;15238;49.082;9.102;2023-04-25T12:14:03;10.40;99.90
27890;DHT22;15238;49.082;9.102;2023-04-25T12:16:04;10.40;99.90
27890;DHT22;15238;49.082;9.102;2023-04-25T12:18:06;10.40;99.90
27890;DHT22;15238;49.082;9.102;2023-04-25T12:20:12;10.30;99.90
27890;DHT22;15238;49.082;9.102;2023-04-25T12:22:23;10.10;99.90
27890;DHT22;15238;49.082;9.102;2023-04-25T12:24:25;10.00;99.90
27890;DHT22;15238;49.082;9.102;2023-04-25T12:26:26;10.20;99.90
27890;DHT22;15238;49.082;9.102;2023-04-25T12:28:46;10.40;99.90
27890;DHT22;15238;49.082;9.102;2023-04-25T12:32:59;10.80;99.90
27890;DHT22;15238;49.082;9.102;2023-04-25T12:35:01;10.90;99.90
27890;DHT22;15238;49.082;9.102;2023-04-25T12:37:01;11.10;99.90
27890;DHT22;15238;49.082;9.102;2023-04-25T12:39:02;11.10;99.90
27890;DHT22;15238;49.082;9.102;2023-04-25T12:41:04;11.30;99.90
27890;DHT22;15238;49.082;9.102;2023-04-25T12:43:05;11.40;99.90
27890;DHT22;15238;49.082;9.102;2023-04-25T12:45:06;11.60;99.90
27890;DHT22;15238;49.082;9.102;2023-04-25T12:47:06;11.70;99.90
27890;DHT22;15238;49.082;9.102;2023-04-25T12:49:08;11.90;99.90
27890;DHT22;15238;49.082;9.102;2023-04-25T12:51:08;11.90;99.90
27890;DHT22;15238;49.082;9.102;2023-04-25T12:53:09;11.90;99.90
27890;DHT22;15238;49.082;9.102;2023-04-25T12:55:10;11.80;99.90
27890;DHT22;15238;49.082;9.102;2023-04-25T12:57:11;11.70;99.90
27890;DHT22;15238;49.082;9.102;2023-04-25T12:59:11;11.50;99.90
27890;DHT22;15238;49.082;9.102;2023-04-25T13:01:12;11.40;99.90